Aviation Digital Data Service (ADDS)

Output produced by METARs form (2218 UTC 10 December 2016)
found at http://aviationweather.gov/adds/metars/
 
KARA 101723Z 1018/1118 06008KT P6SM SKC 
     FM110600 10005KT P6SM SCT070 
     FM111400 14009KT P6SM BKN060